• Join FlightAware (Why Join?)
  • Login
  • US Flag 
06:07AM EST


 

Airport Tracker/Info


-or-


 

Live Flight TrackerFlight Track Log ✈ SWA1821 ✈ 07-Apr-2012 ✈ KALB - KFLL

Flight Track Log - Related Links

Times and Time Zones

All times are in EDT time to prevent confusion due to time zone crossing. See the SWA1821 flight status page for this flight to view local times or setup timezone preferences in your user account.

Time Position Orientation Groundspeed Altitude Reporting Facility
EDT Latitude Longitude Course Direction KTS MPH feet Rate Location/Type
07:26AM 42.1946 -73.8000 359° North  Level FlightAware Approximate
07:27AM 42.0890 -73.8000 359° North  Level FlightAware Approximate
07:28AM 42.7694 -73.8089 320° Northwest 152 175 1,600  Level Boston Center
07:29AM 42.8331 -73.8811 314° West 212 244 7,300 3,060 Climbing Boston Center
07:30AM 42.8761 -73.9417 259° West 212 244 10,000 2,100 Climbing Boston Center
07:31AM 42.8622 -74.0406 179° South 257 296 11,600 2,400 Climbing Boston Center
07:32AM 42.7728 -74.0381 173° South 246 283 14,900 3,180 Climbing Boston Center
07:33AM 42.6625 -74.0183 172° South 307 353 18,000 2,880 Climbing Boston Center
07:34AM 42.5503 -73.9958 178° South 368 423 20,700 2,460 Climbing Boston Center
07:35AM 42.4211 -73.9897 187° South 406 467 23,000 2,100 Climbing Boston Center
07:36AM 42.3083 -74.0094 188° South 432 497 25,000 2,100 Climbing Boston Center
07:37AM 42.1642 -74.0367 187° South 468 539 27,300 1,920 Climbing Boston Center
07:38AM 42.0283 -74.0583 195° South 482 555 28,900 1,500 Climbing Boston Center
07:40AM 41.8092 -74.1383 196° South 551 634 31,400 1,680 Climbing New York Center
07:41AM 41.6764 -74.1897 198° South 520 598 33,500 1,980 Climbing New York Center
07:42AM 41.5500 -74.2444 197° South 492 566 35,500 1,500 Climbing New York Center
07:43AM 41.4233 -74.2958 195° South 478 550 36,600 1,020 Climbing New York Center
07:44AM 41.2950 -74.3417 197° South 478 550 37,600 660 Climbing New York Center
07:45AM 41.1686 -74.3928 197° South 478 550 38,000 180 Climbing New York Center
07:46AM 41.0442 -74.4439 196° South 478 550 38,000  Level New York Center
07:47AM 40.9175 -74.4919 197° South 478 550 38,000  Level New York Center
07:48AM 40.7908 -74.5425 196° South 483 556 38,000  Level New York Center
07:52AM 40.3083 -74.7292 197° South 464 534 38,000  Level Washington Center
07:53AM 40.1817 -74.7797 197° South 470 541 38,000  Level Washington Center
07:54AM 40.0528 -74.8297 195° South 481 554 38,000  Level Washington Center
07:55AM 39.9281 -74.8744 197° South 475 547 38,000  Level Washington Center
07:56AM 39.8011 -74.9244 196° South 480 552 38,000  Level Washington Center
07:57AM 39.6889 -74.9658 197° South 474 545 38,000  Level Washington Center
07:58AM 39.5622 -75.0156 196° South 485 558 38,000  Level Washington Center
07:59AM 39.4372 -75.0622 196° South 475 547 38,000  Level Washington Center
08:00AM 39.3125 -75.1089 205° Southwest 475 547 38,000  Level Washington Center
08:01AM 39.1939 -75.1792 205° Southwest 475 547 38,000  Level Washington Center
08:02AM 39.0733 -75.2519 202° Southwest 475 547 38,000  Level Washington Center
08:03AM 38.9547 -75.3142 207° Southwest 475 547 38,000  Level Washington Center
08:04AM 38.8422 -75.3892 204° Southwest 470 541 38,000  Level Washington Center
08:05AM 38.7256 -75.4558 206° Southwest 460 529 38,000  Level Washington Center
08:06AM 38.6131 -75.5253 204° Southwest 460 529 38,000  Level Washington Center
08:07AM 38.4983 -75.5892 205° Southwest 460 529 38,000  Level Washington Center
08:08AM 38.3858 -75.6553 203° Southwest 460 529 38,000  Level Washington Center
08:09AM 38.2564 -75.7267 204° Southwest 460 529 38,000 240 Level Washington Center
08:10AM 38.1417 -75.7925 205° Southwest 460 529 38,500 540 Climbing Washington Center
08:11AM 38.0228 -75.8633 204° Southwest 465 535 39,200 720 Climbing Washington Center
08:12AM 37.9058 -75.9286 205° Southwest 465 535 40,000 360 Climbing Washington Center
08:13AM 37.7867 -75.9992 206° Southwest 465 535 40,000  Level Washington Center
08:14AM 37.6739 -76.0692 204° Southwest 465 535 40,000  Level Washington Center
08:15AM 37.5589 -76.1342 202° Southwest 465 535 40,000  Level Washington Center
08:16AM 37.4356 -76.1961 206° Southwest 465 535 40,000  Level Washington Center
08:17AM 37.3203 -76.2656 204° Southwest 465 535 40,000  Level Washington Center
08:18AM 37.2031 -76.3297 204° Southwest 460 529 40,000  Level Washington Center
08:19AM 37.0858 -76.3964 204° Southwest 460 529 40,000  Level Washington Center
08:20AM 36.9686 -76.4628 204° Southwest 460 529 40,000  Level Washington Center
08:21AM 36.8514 -76.5289 203° Southwest 460 529 40,000  Level Washington Center
08:22AM 36.7339 -76.5922 205° Southwest 460 529 40,000  Level Washington Center
08:23AM 36.6311 -76.6531 205° Southwest 460 529 40,000  Level Washington Center
08:24AM 36.5158 -76.7189 204° Southwest 460 529 40,000  Level Washington Center
08:25AM 36.4006 -76.7817 203° Southwest 460 529 40,000  Level Washington Center
08:26AM 36.2831 -76.8442 204° Southwest 460 529 40,000  Level Washington Center
08:27AM 36.1656 -76.9092 203° Southwest 460 529 40,000  Level Washington Center
08:28AM 36.0481 -76.9717 204° Southwest 460 529 40,000  Level Washington Center
08:29AM 35.9325 -77.0361 203° Southwest 460 529 40,000  Level Washington Center
08:30AM 35.8147 -77.0981 203° Southwest 460 529 40,000  Level Washington Center
08:31AM 35.6889 -77.1647 205° Southwest 460 529 40,000  Level Washington Center
08:32AM 35.5711 -77.2314 202° Southwest 465 535 40,000  Level Washington Center
08:33AM 35.4597 -77.2878 203° Southwest 470 541 40,000  Level Washington Center
08:34AM 35.3419 -77.3489 204° Southwest 458 527 40,000  Level Washington Center
08:35AM 35.2242 -77.4125 204° Southwest 464 534 40,000  Level Washington Center
08:36AM 35.1083 -77.4758 203° Southwest 464 534 40,000  Level Washington Center
08:37AM 34.9928 -77.5367 203° Southwest 458 527 40,000  Level Washington Center
08:38AM 34.8644 -77.6019 206° Southwest 458 527 40,000  Level Washington Center
08:39AM 34.7528 -77.6675 203° Southwest 458 527 40,000  Level Washington Center
08:40AM 34.6369 -77.7275 203° Southwest 458 527 40,000  Level Washington Center
08:41AM 34.5189 -77.7875 203° Southwest 458 527 40,000  Level Washington Center
08:43AM 34.3150 -77.8900 190° South 471 542 40,000  Level Jacksonville Center
08:44AM 34.1931 -77.9169 195° South 473 544 40,000  Level Jacksonville Center
08:45AM 34.0797 -77.9536 194° South 479 551 40,000  Level Jacksonville Center
08:46AM 33.9314 -77.9969 193° South 470 541 40,000  Level Jacksonville Center
08:47AM 33.8033 -78.0317 196° South 476 548 40,000  Level Jacksonville Center
08:48AM 33.6775 -78.0736 193° South 465 535 40,000  Level Jacksonville Center
08:49AM 33.5619 -78.1047 193° South 470 541 40,000  Level Jacksonville Center
08:50AM 33.4339 -78.1414 194° South 470 541 40,000  Level Jacksonville Center
08:51AM 33.3081 -78.1781 194° South 470 541 40,000  Level Jacksonville Center
08:52AM 33.1822 -78.2144 193° South 470 541 40,000  Level Jacksonville Center
08:53AM 33.0561 -78.2483 195° South 470 541 40,000  Level Jacksonville Center
08:54AM 32.9322 -78.2869 193° South 470 541 40,000  Level Jacksonville Center
08:55AM 32.8083 -78.3203 193° South 470 541 40,000  Level Jacksonville Center
08:56AM 32.6842 -78.3539 193° South 465 535 40,000  Level Jacksonville Center
08:57AM 32.5583 -78.3897 194° South 465 535 40,000  Level Jacksonville Center
08:58AM 32.4342 -78.4253 192° South 465 535 40,000  Level Jacksonville Center
08:59AM 32.3019 -78.4589 194° South 465 535 40,000  Level Jacksonville Center
09:00AM 32.1819 -78.4942 193° South 458 527 40,000  Level Jacksonville Center
09:01AM 32.0558 -78.5294 195° South 458 527 40,000  Level Jacksonville Center
09:02AM 31.9319 -78.5672 194° South 458 527 40,000  Level Jacksonville Center
09:03AM 31.8100 -78.6022 193° South 458 527 40,000  Level Jacksonville Center
09:04AM 31.6900 -78.6347 194° South 451 519 40,000  Level Jacksonville Center
09:05AM 31.5681 -78.6694 194° South 446 513 40,000  Level Jacksonville Center
09:06AM 31.4461 -78.7044 194° South 471 542 40,000  Level Jacksonville Center
09:07AM 31.3219 -78.7414 193° South 451 519 40,000  Level Jacksonville Center
09:08AM 31.2000 -78.7736 194° South 448 516 40,000  Level Jacksonville Center
09:09AM 31.0736 -78.8106 193° South 472 543 40,000  Level Jacksonville Center
09:10AM 30.9494 -78.8450 193° South 500 575 40,000  Level Jacksonville Center
09:11AM 30.8192 -78.8797 194° South 493 567 40,000  Level Jacksonville Center
09:13AM 30.5253 -78.9647 192° South 460 529 40,000  Level Miami Center
09:14AM 30.3956 -78.9981 194° South 459 528 40,000  Level Miami Center
09:15AM 30.2742 -79.0342 192° South 459 528 40,000  Level Miami Center
09:16AM 30.1486 -79.0650 193° South 464 534 40,000  Level Miami Center
09:17AM 30.0272 -79.0961 193° South 459 528 40,000  Level Miami Center
09:18AM 29.8994 -79.1294 197° South 441 507 40,000  Level Miami Center
09:19AM 29.7822 -79.1700 190° South 441 507 40,000  Level Miami Center
09:20AM 29.6586 -79.1958 192° South 446 513 40,000  Level Miami Center
09:21AM 29.5372 -79.2267 192° South 446 513 40,000  Level Miami Center
09:22AM 29.4178 -79.2550 191° South 451 519 40,000  Level Miami Center
09:23AM 29.2942 -79.2833 194° South 451 519 40,000  Level Miami Center
09:24AM 29.1769 -79.3164 192° South 451 519 40,000  Level Miami Center
09:25AM 29.0553 -79.3469 192° South 451 519 40,000  Level Miami Center
09:26AM 28.9339 -79.3775 193° South 451 519 40,000  Level Miami Center
09:27AM 28.8144 -79.4078 192° South 451 519 40,000  Level Miami Center
09:28AM 28.6908 -79.4381 193° South 451 519 40,000  Level Miami Center
09:29AM 28.5669 -79.4708 192° South 451 519 40,000  Level Miami Center
09:30AM 28.4453 -79.5008 191° South 451 519 40,000  Level Miami Center
09:31AM 28.3217 -79.5286 193° South 451 519 40,000  Level Miami Center
09:32AM 28.2000 -79.5611 191° South 451 519 40,000  Level Miami Center
09:33AM 28.0783 -79.5889 193° South 451 519 40,000 -600 Level Miami Center
09:34AM 27.9589 -79.6189 192° South 451 519 38,900 -1,800 Descending Miami Center
09:35AM 27.8519 -79.6444 193° South 451 519 36,400 -2,760 Descending Miami Center
09:36AM 27.7322 -79.6767 192° South 445 512 33,400 -3,240 Descending Miami Center
09:37AM 27.5961 -79.7086 192° South 452 520 30,000 -3,000 Descending Miami Center
09:38AM 27.4786 -79.7361 192° South 447 514 27,500 -2,400 Descending Miami Center
09:39AM 27.3611 -79.7636 178° South 441 507 25,200 -1,800 Descending Miami Center
09:40AM 27.2567 -79.7586 166° South 428 493 24,000 -600 Descending Miami Center
09:41AM 27.1281 -79.7228 165° South 433 498 24,000 -1,680 Level Miami Center
09:42AM 27.0117 -79.6872 165° South 433 498 20,700 -3,300 Descending Miami Center
09:43AM 26.8914 -79.6517 188° South 438 504 17,400 -3,240 Descending Miami Center
09:44AM 26.7739 -79.6697 204° Southwest 405 466 14,300 -2,520 Descending Miami Center
09:45AM 26.6811 -79.7164 205° Southwest 397 457 12,600 -2,640 Descending Miami Center
09:46AM 26.5778 -79.7697 202° Southwest 394 453 9,100 -2,220 Descending Miami Center
09:47AM 26.4808 -79.8136 202° Southwest 386 444 8,000 -600 Descending Miami Center
09:48AM 26.4133 -79.8444 214° Southwest 330 380 8,000 -840 Level Miami Center
09:49AM 26.3411 -79.8983 222° Southwest 296 341 6,400 -1,020 Descending Miami Center
09:50AM 26.2900 -79.9503 220° Southwest 284 327 6,000 -240 Descending Miami Center
09:51AM 26.2325 -80.0044 221° Southwest 264 304 6,000  Level Miami Center
09:52AM 26.1833 -80.0517 250° West 252 290 6,000  Level Miami Center
09:53AM 26.1608 -80.1206 261° West 242 278 6,000 -480 Level Miami Center
09:54AM 26.1508 -80.1942 270° West 236 272 5,100 -900 Descending Miami Center
09:55AM 26.1508 -80.2939 267° West 240 276 4,000 -480 Descending Miami Center
09:56AM 26.1467 -80.3747 273° West 237 273 4,000  Level Miami Center
09:57AM 26.1494 -80.4325 258° West 195 224 4,000  Level Miami Center
09:58AM 26.1375 -80.4947 169° South 196 226 4,000  Level Miami Center
09:59AM 26.0856 -80.4839 101° East 189 217 4,000  Level Miami Center
10:00AM 26.0764 -80.4303 93° East 178 205 4,000 -300 Level Miami Center
10:01AM 26.0736 -80.3772 86° East 179 206 3,500 -660 Descending Miami Center
10:02AM 26.0767 -80.3286 93° East 163 188 2,800 -840 Descending Miami Center
10:04AM 26.0739 -80.2753 89° East 156 180 1,800 -840 Descending Miami Center
10:04AM 26.0747 -80.2361 92° East 129 148 1,200 -660 Descending Miami Center
10:06AM 26.0736 -80.1922 92° East 128 147 500 -660 Descending Miami Center